sensor_id;sensor_type;location;lat;lon;timestamp;P1;durP1;ratioP1;P2;durP2;ratioP2
20393;SDS011;10356;50.544;9.642;2023-06-22T00:02:00;11.73;;;10.43;;
20393;SDS011;10356;50.544;9.642;2023-06-22T00:04:26;12.43;;;11.23;;
20393;SDS011;10356;50.544;9.642;2023-06-22T00:06:53;12.00;;;10.80;;
20393;SDS011;10356;50.544;9.642;2023-06-22T00:09:19;12.07;;;10.98;;
20393;SDS011;10356;50.544;9.642;2023-06-22T00:11:46;12.20;;;11.00;;
20393;SDS011;10356;50.544;9.642;2023-06-22T00:14:14;12.85;;;10.43;;
20393;SDS011;10356;50.544;9.642;2023-06-22T00:16:40;13.95;;;12.48;;
20393;SDS011;10356;50.544;9.642;2023-06-22T00:19:08;12.57;;;11.35;;
20393;SDS011;10356;50.544;9.642;2023-06-22T00:21:36;11.45;;;10.35;;
20393;SDS011;10356;50.544;9.642;2023-06-22T00:24:03;12.15;;;10.88;;
20393;SDS011;10356;50.544;9.642;2023-06-22T00:26:31;13.38;;;10.60;;
20393;SDS011;10356;50.544;9.642;2023-06-22T00:28:57;11.15;;;10.10;;
20393;SDS011;10356;50.544;9.642;2023-06-22T00:31:25;12.73;;;11.25;;
20393;SDS011;10356;50.544;9.642;2023-06-22T00:33:52;11.90;;;10.70;;
20393;SDS011;10356;50.544;9.642;2023-06-22T00:36:18;12.60;;;11.30;;
20393;SDS011;10356;50.544;9.642;2023-06-22T00:38:44;13.10;;;11.70;;
20393;SDS011;10356;50.544;9.642;2023-06-22T00:41:11;15.05;;;12.63;;
20393;SDS011;10356;50.544;9.642;2023-06-22T00:43:37;13.77;;;12.48;;
20393;SDS011;10356;50.544;9.642;2023-06-22T00:46:05;14.02;;;12.52;;
20393;SDS011;10356;50.544;9.642;2023-06-22T00:48:33;13.02;;;11.82;;
20393;SDS011;10356;50.544;9.642;2023-06-22T00:51:02;14.20;;;12.70;;
20393;SDS011;10356;50.544;9.642;2023-06-22T00:53:28;13.93;;;12.48;;
20393;SDS011;10356;50.544;9.642;2023-06-22T00:55:55;15.60;;;13.27;;
20393;SDS011;10356;50.544;9.642;2023-06-22T00:58:24;14.32;;;12.93;;
20393;SDS011;10356;50.544;9.642;2023-06-22T01:00:51;13.45;;;12.15;;
20393;SDS011;10356;50.544;9.642;2023-06-22T01:03:17;14.20;;;12.85;;
20393;SDS011;10356;50.544;9.642;2023-06-22T01:05:47;13.40;;;11.95;;
20393;SDS011;10356;50.544;9.642;2023-06-22T01:08:19;12.75;;;11.55;;
20393;SDS011;10356;50.544;9.642;2023-06-22T01:10:55;13.70;;;12.32;;
20393;SDS011;10356;50.544;9.642;2023-06-22T01:13:30;13.50;;;12.20;;
20393;SDS011;10356;50.544;9.642;2023-06-22T01:16:05;13.40;;;11.85;;
20393;SDS011;10356;50.544;9.642;2023-06-22T01:18:36;13.95;;;12.57;;
20393;SDS011;10356;50.544;9.642;2023-06-22T01:21:07;14.60;;;12.85;;
20393;SDS011;10356;50.544;9.642;2023-06-22T01:23:45;13.20;;;11.73;;
20393;SDS011;10356;50.544;9.642;2023-06-22T01:26:21;14.25;;;12.77;;
20393;SDS011;10356;50.544;9.642;2023-06-22T01:29:02;13.10;;;11.77;;
20393;SDS011;10356;50.544;9.642;2023-06-22T01:31:30;16.10;;;13.15;;
20393;SDS011;10356;50.544;9.642;2023-06-22T01:34:00;15.02;;;13.32;;
20393;SDS011;10356;50.544;9.642;2023-06-22T01:36:29;14.95;;;13.05;;
20393;SDS011;10356;50.544;9.642;2023-06-22T01:38:57;15.30;;;13.80;;
20393;SDS011;10356;50.544;9.642;2023-06-22T01:41:25;14.43;;;13.02;;
20393;SDS011;10356;50.544;9.642;2023-06-22T01:43:52;14.80;;;12.52;;
20393;SDS011;10356;50.544;9.642;2023-06-22T01:46:21;14.00;;;12.25;;
20393;SDS011;10356;50.544;9.642;2023-06-22T01:48:49;13.25;;;11.98;;
20393;SDS011;10356;50.544;9.642;2023-06-22T01:51:16;14.10;;;12.35;;
20393;SDS011;10356;50.544;9.642;2023-06-22T01:53:43;13.38;;;12.00;;
20393;SDS011;10356;50.544;9.642;2023-06-22T01:56:10;13.60;;;12.23;;
20393;SDS011;10356;50.544;9.642;2023-06-22T01:58:40;16.13;;;12.77;;
20393;SDS011;10356;50.544;9.642;2023-06-22T02:01:13;12.88;;;11.65;;
20393;SDS011;10356;50.544;9.642;2023-06-22T02:03:47;14.35;;;12.23;;
20393;SDS011;10356;50.544;9.642;2023-06-22T02:06:20;15.68;;;11.88;;
20393;SDS011;10356;50.544;9.642;2023-06-22T02:08:51;12.90;;;11.27;;
20393;SDS011;10356;50.544;9.642;2023-06-22T02:11:23;13.73;;;11.55;;
20393;SDS011;10356;50.544;9.642;2023-06-22T02:13:52;12.40;;;11.20;;
20393;SDS011;10356;50.544;9.642;2023-06-22T02:16:20;12.45;;;10.52;;
20393;SDS011;10356;50.544;9.642;2023-06-22T02:18:48;11.55;;;10.45;;
20393;SDS011;10356;50.544;9.642;2023-06-22T02:21:16;13.32;;;11.35;;
20393;SDS011;10356;50.544;9.642;2023-06-22T02:23:43;12.68;;;10.95;;
20393;SDS011;10356;50.544;9.642;2023-06-22T02:26:09;12.98;;;11.50;;
20393;SDS011;10356;50.544;9.642;2023-06-22T02:28:36;13.30;;;11.15;;
20393;SDS011;10356;50.544;9.642;2023-06-22T02:31:03;14.25;;;11.75;;
20393;SDS011;10356;50.544;9.642;2023-06-22T02:33:29;14.27;;;12.68;;
20393;SDS011;10356;50.544;9.642;2023-06-22T02:35:57;13.82;;;12.43;;
20393;SDS011;10356;50.544;9.642;2023-06-22T02:38:24;14.38;;;12.88;;
20393;SDS011;10356;50.544;9.642;2023-06-22T02:40:50;15.23;;;13.63;;
20393;SDS011;10356;50.544;9.642;2023-06-22T02:43:17;14.65;;;13.07;;
20393;SDS011;10356;50.544;9.642;2023-06-22T02:45:43;15.45;;;13.95;;
20393;SDS011;10356;50.544;9.642;2023-06-22T02:48:10;16.65;;;14.95;;
20393;SDS011;10356;50.544;9.642;2023-06-22T02:50:36;18.15;;;15.25;;
20393;SDS011;10356;50.544;9.642;2023-06-22T02:53:04;17.45;;;14.82;;
20393;SDS011;10356;50.544;9.642;2023-06-22T02:55:31;17.33;;;15.55;;
20393;SDS011;10356;50.544;9.642;2023-06-22T02:57:57;16.52;;;14.82;;
20393;SDS011;10356;50.544;9.642;2023-06-22T03:00:24;19.17;;;16.25;;
20393;SDS011;10356;50.544;9.642;2023-06-22T03:02:55;18.15;;;15.20;;
20393;SDS011;10356;50.544;9.642;2023-06-22T03:05:22;17.45;;;15.63;;
20393;SDS011;10356;50.544;9.642;2023-06-22T03:07:49;17.98;;;16.05;;
20393;SDS011;10356;50.544;9.642;2023-06-22T03:10:17;16.73;;;14.95;;
20393;SDS011;10356;50.544;9.642;2023-06-22T03:12:43;17.10;;;15.43;;
20393;SDS011;10356;50.544;9.642;2023-06-22T03:15:10;18.10;;;16.20;;
20393;SDS011;10356;50.544;9.642;2023-06-22T03:17:38;17.70;;;15.93;;
20393;SDS011;10356;50.544;9.642;2023-06-22T03:20:06;17.88;;;14.93;;
20393;SDS011;10356;50.544;9.642;2023-06-22T03:22:35;18.83;;;16.83;;
20393;SDS011;10356;50.544;9.642;2023-06-22T03:25:02;19.45;;;15.27;;
20393;SDS011;10356;50.544;9.642;2023-06-22T03:27:30;17.85;;;15.90;;
20393;SDS011;10356;50.544;9.642;2023-06-22T03:29:57;18.98;;;16.77;;
20393;SDS011;10356;50.544;9.642;2023-06-22T03:32:23;17.05;;;15.20;;
20393;SDS011;10356;50.544;9.642;2023-06-22T03:34:52;18.95;;;16.48;;
20393;SDS011;10356;50.544;9.642;2023-06-22T03:37:19;17.63;;;15.82;;
20393;SDS011;10356;50.544;9.642;2023-06-22T03:39:46;18.25;;;16.27;;
20393;SDS011;10356;50.544;9.642;2023-06-22T03:42:12;18.45;;;16.38;;
20393;SDS011;10356;50.544;9.642;2023-06-22T03:44:40;21.13;;;17.20;;
20393;SDS011;10356;50.544;9.642;2023-06-22T03:47:06;21.08;;;16.80;;
20393;SDS011;10356;50.544;9.642;2023-06-22T03:49:33;18.48;;;16.58;;
20393;SDS011;10356;50.544;9.642;2023-06-22T03:52:00;18.05;;;16.15;;
20393;SDS011;10356;50.544;9.642;2023-06-22T03:54:27;20.20;;;17.38;;
20393;SDS011;10356;50.544;9.642;2023-06-22T03:56:55;18.33;;;16.27;;
20393;SDS011;10356;50.544;9.642;2023-06-22T03:59:22;17.10;;;15.15;;
20393;SDS011;10356;50.544;9.642;2023-06-22T04:01:50;19.50;;;16.52;;
20393;SDS011;10356;50.544;9.642;2023-06-22T04:04:16;21.38;;;15.60;;
20393;SDS011;10356;50.544;9.642;2023-06-22T04:06:43;17.27;;;15.50;;
20393;SDS011;10356;50.544;9.642;2023-06-22T04:09:10;17.17;;;15.32;;
20393;SDS011;10356;50.544;9.642;2023-06-22T04:11:36;18.20;;;15.30;;
20393;SDS011;10356;50.544;9.642;2023-06-22T04:14:03;17.77;;;14.75;;
20393;SDS011;10356;50.544;9.642;2023-06-22T04:16:29;16.50;;;14.77;;
20393;SDS011;10356;50.544;9.642;2023-06-22T04:18:57;18.35;;;15.73;;
20393;SDS011;10356;50.544;9.642;2023-06-22T04:21:23;17.88;;;15.98;;
20393;SDS011;10356;50.544;9.642;2023-06-22T04:23:50;16.40;;;14.63;;
20393;SDS011;10356;50.544;9.642;2023-06-22T04:26:16;17.15;;;15.35;;
20393;SDS011;10356;50.544;9.642;2023-06-22T04:28:45;16.08;;;14.55;;
20393;SDS011;10356;50.544;9.642;2023-06-22T04:31:16;17.25;;;15.55;;
20393;SDS011;10356;50.544;9.642;2023-06-22T04:33:44;17.38;;;15.43;;
20393;SDS011;10356;50.544;9.642;2023-06-22T04:36:12;18.08;;;14.73;;
20393;SDS011;10356;50.544;9.642;2023-06-22T04:38:39;17.88;;;15.98;;
20393;SDS011;10356;50.544;9.642;2023-06-22T04:41:07;16.60;;;15.00;;
20393;SDS011;10356;50.544;9.642;2023-06-22T04:43:39;17.08;;;15.27;;
20393;SDS011;10356;50.544;9.642;2023-06-22T04:46:05;17.10;;;15.30;;
20393;SDS011;10356;50.544;9.642;2023-06-22T04:48:32;16.00;;;14.32;;
20393;SDS011;10356;50.544;9.642;2023-06-22T04:50:58;16.70;;;15.02;;
20393;SDS011;10356;50.544;9.642;2023-06-22T04:53:29;15.98;;;14.30;;
20393;SDS011;10356;50.544;9.642;2023-06-22T04:55:56;16.10;;;14.48;;
20393;SDS011;10356;50.544;9.642;2023-06-22T04:58:22;16.92;;;15.15;;
20393;SDS011;10356;50.544;9.642;2023-06-22T05:00:53;17.10;;;15.32;;
20393;SDS011;10356;50.544;9.642;2023-06-22T05:03:22;16.45;;;14.25;;
20393;SDS011;10356;50.544;9.642;2023-06-22T05:05:50;16.77;;;14.95;;
20393;SDS011;10356;50.544;9.642;2023-06-22T05:08:17;18.60;;;16.13;;
20393;SDS011;10356;50.544;9.642;2023-06-22T05:10:45;16.70;;;14.93;;
20393;SDS011;10356;50.544;9.642;2023-06-22T05:13:12;15.77;;;14.18;;
20393;SDS011;10356;50.544;9.642;2023-06-22T05:15:38;16.08;;;14.45;;
20393;SDS011;10356;50.544;9.642;2023-06-22T05:18:05;17.52;;;15.73;;
20393;SDS011;10356;50.544;9.642;2023-06-22T05:20:31;15.88;;;14.38;;
20393;SDS011;10356;50.544;9.642;2023-06-22T05:22:59;16.45;;;14.95;;
20393;SDS011;10356;50.544;9.642;2023-06-22T05:25:25;19.52;;;15.82;;
20393;SDS011;10356;50.544;9.642;2023-06-22T05:27:56;16.98;;;14.60;;
20393;SDS011;10356;50.544;9.642;2023-06-22T05:30:22;16.08;;;13.70;;
20393;SDS011;10356;50.544;9.642;2023-06-22T05:32:49;16.10;;;14.40;;
20393;SDS011;10356;50.544;9.642;2023-06-22T05:35:17;15.60;;;14.00;;
20393;SDS011;10356;50.544;9.642;2023-06-22T05:37:44;16.20;;;14.50;;
20393;SDS011;10356;50.544;9.642;2023-06-22T05:40:11;17.65;;;14.18;;
20393;SDS011;10356;50.544;9.642;2023-06-22T05:42:38;17.20;;;15.23;;
20393;SDS011;10356;50.544;9.642;2023-06-22T05:45:06;16.55;;;14.88;;
20393;SDS011;10356;50.544;9.642;2023-06-22T05:47:33;17.20;;;15.35;;
20393;SDS011;10356;50.544;9.642;2023-06-22T05:49:59;18.40;;;14.32;;
20393;SDS011;10356;50.544;9.642;2023-06-22T05:52:26;17.65;;;15.95;;
20393;SDS011;10356;50.544;9.642;2023-06-22T05:54:52;15.85;;;14.25;;
20393;SDS011;10356;50.544;9.642;2023-06-22T05:57:19;17.75;;;14.95;;
20393;SDS011;10356;50.544;9.642;2023-06-22T05:59:46;16.08;;;14.43;;
20393;SDS011;10356;50.544;9.642;2023-06-22T06:02:14;16.13;;;14.00;;
20393;SDS011;10356;50.544;9.642;2023-06-22T06:04:41;16.60;;;13.95;;
20393;SDS011;10356;50.544;9.642;2023-06-22T06:07:07;18.98;;;13.95;;
20393;SDS011;10356;50.544;9.642;2023-06-22T06:09:34;16.80;;;13.95;;
20393;SDS011;10356;50.544;9.642;2023-06-22T06:12:00;16.15;;;14.52;;
20393;SDS011;10356;50.544;9.642;2023-06-22T06:14:28;16.63;;;13.98;;
20393;SDS011;10356;50.544;9.642;2023-06-22T06:16:54;15.88;;;14.27;;
20393;SDS011;10356;50.544;9.642;2023-06-22T06:19:22;16.70;;;13.68;;
20393;SDS011;10356;50.544;9.642;2023-06-22T06:21:48;16.52;;;13.70;;
20393;SDS011;10356;50.544;9.642;2023-06-22T06:24:15;16.33;;;14.23;;
20393;SDS011;10356;50.544;9.642;2023-06-22T06:26:41;16.52;;;12.23;;
20393;SDS011;10356;50.544;9.642;2023-06-22T06:29:11;16.98;;;13.60;;
20393;SDS011;10356;50.544;9.642;2023-06-22T06:31:37;15.55;;;13.15;;
20393;SDS011;10356;50.544;9.642;2023-06-22T06:34:04;14.38;;;12.98;;
20393;SDS011;10356;50.544;9.642;2023-06-22T06:36:32;14.68;;;12.32;;
20393;SDS011;10356;50.544;9.642;2023-06-22T06:38:58;13.20;;;11.90;;
20393;SDS011;10356;50.544;9.642;2023-06-22T06:41:25;13.05;;;11.82;;
20393;SDS011;10356;50.544;9.642;2023-06-22T06:43:51;14.70;;;12.85;;
20393;SDS011;10356;50.544;9.642;2023-06-22T06:46:19;15.38;;;12.02;;
20393;SDS011;10356;50.544;9.642;2023-06-22T06:48:45;14.55;;;11.85;;
20393;SDS011;10356;50.544;9.642;2023-06-22T06:51:13;13.85;;;12.45;;
20393;SDS011;10356;50.544;9.642;2023-06-22T06:53:41;14.40;;;12.90;;
20393;SDS011;10356;50.544;9.642;2023-06-22T06:56:07;13.38;;;11.90;;
20393;SDS011;10356;50.544;9.642;2023-06-22T06:58:35;13.30;;;12.00;;
20393;SDS011;10356;50.544;9.642;2023-06-22T07:01:02;14.00;;;10.95;;
20393;SDS011;10356;50.544;9.642;2023-06-22T07:03:28;11.48;;;10.02;;
20393;SDS011;10356;50.544;9.642;2023-06-22T07:05:55;13.48;;;10.35;;
20393;SDS011;10356;50.544;9.642;2023-06-22T07:08:21;12.40;;;11.10;;
20393;SDS011;10356;50.544;9.642;2023-06-22T07:10:49;10.98;;;9.88;;
20393;SDS011;10356;50.544;9.642;2023-06-22T07:13:16;13.52;;;9.98;;
20393;SDS011;10356;50.544;9.642;2023-06-22T07:15:42;10.73;;;9.57;;
20393;SDS011;10356;50.544;9.642;2023-06-22T07:18:09;14.07;;;11.00;;
20393;SDS011;10356;50.544;9.642;2023-06-22T07:20:35;10.93;;;9.82;;
20393;SDS011;10356;50.544;9.642;2023-06-22T07:23:02;12.63;;;9.65;;
20393;SDS011;10356;50.544;9.642;2023-06-22T07:25:29;10.43;;;9.27;;
20393;SDS011;10356;50.544;9.642;2023-06-22T07:28:00;12.02;;;9.77;;
20393;SDS011;10356;50.544;9.642;2023-06-22T07:30:28;10.43;;;9.43;;
20393;SDS011;10356;50.544;9.642;2023-06-22T07:32:55;11.90;;;10.57;;
20393;SDS011;10356;50.544;9.642;2023-06-22T07:35:21;13.05;;;10.20;;
20393;SDS011;10356;50.544;9.642;2023-06-22T07:37:48;11.65;;;10.55;;
20393;SDS011;10356;50.544;9.642;2023-06-22T07:40:14;10.32;;;9.32;;
20393;SDS011;10356;50.544;9.642;2023-06-22T07:42:41;12.23;;;10.20;;
20393;SDS011;10356;50.544;9.642;2023-06-22T07:45:09;11.05;;;9.82;;
20393;SDS011;10356;50.544;9.642;2023-06-22T07:47:36;13.40;;;10.27;;
20393;SDS011;10356;50.544;9.642;2023-06-22T07:50:02;12.45;;;9.82;;
20393;SDS011;10356;50.544;9.642;2023-06-22T07:52:30;10.27;;;9.27;;
20393;SDS011;10356;50.544;9.642;2023-06-22T07:54:57;11.32;;;9.82;;
20393;SDS011;10356;50.544;9.642;2023-06-22T07:57:24;10.82;;;9.35;;
20393;SDS011;10356;50.544;9.642;2023-06-22T07:59:57;12.13;;;9.75;;
20393;SDS011;10356;50.544;9.642;2023-06-22T08:02:25;11.82;;;9.50;;
20393;SDS011;10356;50.544;9.642;2023-06-22T08:04:51;10.57;;;9.18;;
20393;SDS011;10356;50.544;9.642;2023-06-22T08:07:18;11.23;;;8.65;;
20393;SDS011;10356;50.544;9.642;2023-06-22T08:09:45;10.45;;;9.35;;
20393;SDS011;10356;50.544;9.642;2023-06-22T08:12:13;12.80;;;9.93;;
20393;SDS011;10356;50.544;9.642;2023-06-22T08:14:41;9.70;;;8.70;;
20393;SDS011;10356;50.544;9.642;2023-06-22T08:17:09;9.82;;;8.82;;
20393;SDS011;10356;50.544;9.642;2023-06-22T08:19:37;10.50;;;9.38;;
20393;SDS011;10356;50.544;9.642;2023-06-22T08:22:04;8.90;;;8.00;;
20393;SDS011;10356;50.544;9.642;2023-06-22T08:24:31;10.18;;;9.15;;
20393;SDS011;10356;50.544;9.642;2023-06-22T08:26:58;10.65;;;8.73;;
20393;SDS011;10356;50.544;9.642;2023-06-22T08:29:25;8.85;;;8.05;;
20393;SDS011;10356;50.544;9.642;2023-06-22T08:31:51;9.90;;;8.90;;
20393;SDS011;10356;50.544;9.642;2023-06-22T08:34:18;9.52;;;8.35;;
20393;SDS011;10356;50.544;9.642;2023-06-22T08:36:49;9.63;;;8.70;;
20393;SDS011;10356;50.544;9.642;2023-06-22T08:39:16;9.43;;;8.38;;
20393;SDS011;10356;50.544;9.642;2023-06-22T08:41:43;9.60;;;8.70;;
20393;SDS011;10356;50.544;9.642;2023-06-22T08:44:10;10.75;;;8.68;;
20393;SDS011;10356;50.544;9.642;2023-06-22T08:46:36;11.43;;;8.88;;
20393;SDS011;10356;50.544;9.642;2023-06-22T08:49:04;9.82;;;8.93;;
20393;SDS011;10356;50.544;9.642;2023-06-22T08:51:31;9.57;;;8.65;;
20393;SDS011;10356;50.544;9.642;2023-06-22T08:53:59;9.13;;;8.18;;
20393;SDS011;10356;50.544;9.642;2023-06-22T08:56:25;9.77;;;8.63;;
20393;SDS011;10356;50.544;9.642;2023-06-22T08:58:52;9.45;;;8.57;;
20393;SDS011;10356;50.544;9.642;2023-06-22T09:01:18;9.93;;;8.88;;
20393;SDS011;10356;50.544;9.642;2023-06-22T09:03:45;8.55;;;7.70;;
20393;SDS011;10356;50.544;9.642;2023-06-22T09:06:19;8.48;;;7.68;;
20393;SDS011;10356;50.544;9.642;2023-06-22T09:08:45;9.32;;;8.43;;
20393;SDS011;10356;50.544;9.642;2023-06-22T09:11:13;8.50;;;7.60;;
20393;SDS011;10356;50.544;9.642;2023-06-22T09:13:40;9.05;;;8.25;;
20393;SDS011;10356;50.544;9.642;2023-06-22T09:16:06;10.30;;;8.10;;
20393;SDS011;10356;50.544;9.642;2023-06-22T09:18:33;9.05;;;7.90;;
20393;SDS011;10356;50.544;9.642;2023-06-22T09:21:01;8.35;;;7.47;;
20393;SDS011;10356;50.544;9.642;2023-06-22T09:23:27;11.48;;;6.53;;
20393;SDS011;10356;50.544;9.642;2023-06-22T09:25:54;8.23;;;7.32;;
20393;SDS011;10356;50.544;9.642;2023-06-22T09:28:22;7.35;;;6.65;;
20393;SDS011;10356;50.544;9.642;2023-06-22T09:30:48;7.85;;;7.05;;
20393;SDS011;10356;50.544;9.642;2023-06-22T09:33:15;8.40;;;7.70;;
20393;SDS011;10356;50.544;9.642;2023-06-22T09:35:44;9.82;;;7.60;;
20393;SDS011;10356;50.544;9.642;2023-06-22T09:38:11;7.85;;;7.07;;
20393;SDS011;10356;50.544;9.642;2023-06-22T09:40:37;7.05;;;6.45;;
20393;SDS011;10356;50.544;9.642;2023-06-22T09:43:05;8.98;;;7.22;;
20393;SDS011;10356;50.544;9.642;2023-06-22T09:45:33;8.85;;;7.07;;
20393;SDS011;10356;50.544;9.642;2023-06-22T09:47:59;9.75;;;6.65;;
20393;SDS011;10356;50.544;9.642;2023-06-22T09:50:26;7.45;;;6.07;;
20393;SDS011;10356;50.544;9.642;2023-06-22T09:52:52;5.90;;;5.40;;
20393;SDS011;10356;50.544;9.642;2023-06-22T09:55:20;7.07;;;5.65;;
20393;SDS011;10356;50.544;9.642;2023-06-22T09:57:46;6.28;;;5.68;;
20393;SDS011;10356;50.544;9.642;2023-06-22T10:00:13;7.35;;;5.63;;
20393;SDS011;10356;50.544;9.642;2023-06-22T10:02:43;7.53;;;5.88;;
20393;SDS011;10356;50.544;9.642;2023-06-22T10:05:09;5.90;;;5.30;;
20393;SDS011;10356;50.544;9.642;2023-06-22T10:07:36;6.25;;;5.38;;
20393;SDS011;10356;50.544;9.642;2023-06-22T10:10:05;6.20;;;5.60;;
20393;SDS011;10356;50.544;9.642;2023-06-22T10:12:32;6.22;;;5.70;;
20393;SDS011;10356;50.544;9.642;2023-06-22T10:14:58;7.60;;;5.97;;
20393;SDS011;10356;50.544;9.642;2023-06-22T10:17:25;8.75;;;5.53;;
20393;SDS011;10356;50.544;9.642;2023-06-22T10:19:53;7.65;;;6.15;;
20393;SDS011;10356;50.544;9.642;2023-06-22T10:22:19;6.45;;;5.70;;
20393;SDS011;10356;50.544;9.642;2023-06-22T10:24:46;8.63;;;5.53;;
20393;SDS011;10356;50.544;9.642;2023-06-22T10:27:12;7.00;;;6.30;;
20393;SDS011;10356;50.544;9.642;2023-06-22T10:29:39;6.10;;;5.50;;
20393;SDS011;10356;50.544;9.642;2023-06-22T10:32:06;8.80;;;6.10;;
20393;SDS011;10356;50.544;9.642;2023-06-22T10:34:33;5.63;;;5.15;;
20393;SDS011;10356;50.544;9.642;2023-06-22T10:37:01;5.68;;;5.07;;
20393;SDS011;10356;50.544;9.642;2023-06-22T10:39:27;6.07;;;5.47;;
20393;SDS011;10356;50.544;9.642;2023-06-22T10:41:54;8.07;;;5.43;;
20393;SDS011;10356;50.544;9.642;2023-06-22T10:44:21;5.90;;;5.30;;
20393;SDS011;10356;50.544;9.642;2023-06-22T10:46:47;7.05;;;5.78;;
20393;SDS011;10356;50.544;9.642;2023-06-22T10:49:14;7.28;;;5.55;;
20393;SDS011;10356;50.544;9.642;2023-06-22T10:51:40;10.40;;;5.88;;
20393;SDS011;10356;50.544;9.642;2023-06-22T10:54:08;9.50;;;6.53;;
20393;SDS011;10356;50.544;9.642;2023-06-22T10:56:35;6.35;;;5.72;;
20393;SDS011;10356;50.544;9.642;2023-06-22T10:59:01;7.20;;;5.65;;
20393;SDS011;10356;50.544;9.642;2023-06-22T11:01:28;6.18;;;5.28;;
20393;SDS011;10356;50.544;9.642;2023-06-22T11:03:56;7.72;;;5.63;;
20393;SDS011;10356;50.544;9.642;2023-06-22T11:06:22;7.28;;;5.55;;
20393;SDS011;10356;50.544;9.642;2023-06-22T11:08:49;6.40;;;5.80;;
20393;SDS011;10356;50.544;9.642;2023-06-22T11:11:17;6.15;;;5.53;;
20393;SDS011;10356;50.544;9.642;2023-06-22T11:13:43;8.80;;;5.53;;
20393;SDS011;10356;50.544;9.642;2023-06-22T11:16:10;6.63;;;5.38;;
20393;SDS011;10356;50.544;9.642;2023-06-22T11:18:36;5.50;;;5.03;;
20393;SDS011;10356;50.544;9.642;2023-06-22T11:21:03;5.72;;;5.22;;
20393;SDS011;10356;50.544;9.642;2023-06-22T11:23:29;5.07;;;4.57;;
20393;SDS011;10356;50.544;9.642;2023-06-22T11:25:56;6.40;;;5.80;;
20393;SDS011;10356;50.544;9.642;2023-06-22T11:28:24;6.80;;;5.45;;
20393;SDS011;10356;50.544;9.642;2023-06-22T11:30:51;7.70;;;5.60;;
20393;SDS011;10356;50.544;9.642;2023-06-22T11:33:18;5.75;;;5.20;;
20393;SDS011;10356;50.544;9.642;2023-06-22T11:35:44;6.60;;;5.57;;
20393;SDS011;10356;50.544;9.642;2023-06-22T11:38:11;5.93;;;5.32;;
20393;SDS011;10356;50.544;9.642;2023-06-22T11:40:37;5.90;;;5.35;;
20393;SDS011;10356;50.544;9.642;2023-06-22T11:43:04;6.78;;;5.70;;
20393;SDS011;10356;50.544;9.642;2023-06-22T11:45:32;6.03;;;5.43;;
20393;SDS011;10356;50.544;9.642;2023-06-22T11:47:58;6.25;;;5.68;;
20393;SDS011;10356;50.544;9.642;2023-06-22T11:50:24;6.00;;;5.28;;
20393;SDS011;10356;50.544;9.642;2023-06-22T11:52:51;5.82;;;5.30;;
20393;SDS011;10356;50.544;9.642;2023-06-22T11:55:18;7.68;;;5.68;;
20393;SDS011;10356;50.544;9.642;2023-06-22T11:57:53;7.28;;;5.45;;
20393;SDS011;10356;50.544;9.642;2023-06-22T12:00:20;6.32;;;5.70;;
20393;SDS011;10356;50.544;9.642;2023-06-22T12:02:50;6.93;;;5.22;;
20393;SDS011;10356;50.544;9.642;2023-06-22T12:05:17;7.13;;;6.25;;
20393;SDS011;10356;50.544;9.642;2023-06-22T12:07:45;8.32;;;6.15;;
20393;SDS011;10356;50.544;9.642;2023-06-22T12:10:12;7.05;;;6.13;;
20393;SDS011;10356;50.544;9.642;2023-06-22T12:12:38;6.68;;;6.03;;
20393;SDS011;10356;50.544;9.642;2023-06-22T12:15:05;8.75;;;6.50;;
20393;SDS011;10356;50.544;9.642;2023-06-22T12:17:32;7.88;;;6.75;;
20393;SDS011;10356;50.544;9.642;2023-06-22T12:20:01;7.30;;;6.70;;
20393;SDS011;10356;50.544;9.642;2023-06-22T12:22:30;8.20;;;6.97;;
20393;SDS011;10356;50.544;9.642;2023-06-22T12:24:56;10.02;;;6.70;;
20393;SDS011;10356;50.544;9.642;2023-06-22T12:27:25;10.30;;;7.30;;
20393;SDS011;10356;50.544;9.642;2023-06-22T12:29:51;9.00;;;6.75;;
20393;SDS011;10356;50.544;9.642;2023-06-22T12:32:18;10.02;;;6.88;;
20393;SDS011;10356;50.544;9.642;2023-06-22T12:34:44;10.93;;;7.32;;
20393;SDS011;10356;50.544;9.642;2023-06-22T12:37:14;10.85;;;6.63;;
20393;SDS011;10356;50.544;9.642;2023-06-22T12:39:41;7.30;;;6.60;;
20393;SDS011;10356;50.544;9.642;2023-06-22T12:42:07;9.38;;;6.72;;
20393;SDS011;10356;50.544;9.642;2023-06-22T12:44:37;8.85;;;7.10;;
20393;SDS011;10356;50.544;9.642;2023-06-22T12:47:03;8.85;;;7.80;;
20393;SDS011;10356;50.544;9.642;2023-06-22T12:49:30;13.60;;;7.00;;
20393;SDS011;10356;50.544;9.642;2023-06-22T12:51:57;10.20;;;6.57;;
20393;SDS011;10356;50.544;9.642;2023-06-22T12:54:25;7.53;;;6.25;;
20393;SDS011;10356;50.544;9.642;2023-06-22T12:56:51;8.80;;;7.53;;
20393;SDS011;10356;50.544;9.642;2023-06-22T12:59:18;8.68;;;6.38;;
20393;SDS011;10356;50.544;9.642;2023-06-22T13:01:44;9.48;;;7.47;;
20393;SDS011;10356;50.544;9.642;2023-06-22T13:04:11;7.97;;;6.90;;
20393;SDS011;10356;50.544;9.642;2023-06-22T13:06:39;8.02;;;6.50;;
20393;SDS011;10356;50.544;9.642;2023-06-22T13:09:06;10.07;;;7.00;;
20393;SDS011;10356;50.544;9.642;2023-06-22T13:11:35;9.82;;;7.60;;
20393;SDS011;10356;50.544;9.642;2023-06-22T13:14:01;9.65;;;7.25;;
20393;SDS011;10356;50.544;9.642;2023-06-22T13:16:28;7.78;;;7.03;;
20393;SDS011;10356;50.544;9.642;2023-06-22T13:18:54;9.40;;;7.60;;
20393;SDS011;10356;50.544;9.642;2023-06-22T13:21:21;12.23;;;7.63;;
20393;SDS011;10356;50.544;9.642;2023-06-22T13:23:47;13.60;;;8.00;;
20393;SDS011;10356;50.544;9.642;2023-06-22T13:26:14;8.38;;;7.45;;
20393;SDS011;10356;50.544;9.642;2023-06-22T13:28:42;9.55;;;7.72;;
20393;SDS011;10356;50.544;9.642;2023-06-22T13:31:08;11.80;;;7.68;;
20393;SDS011;10356;50.544;9.642;2023-06-22T13:33:35;11.30;;;8.10;;
20393;SDS011;10356;50.544;9.642;2023-06-22T13:36:03;11.05;;;8.20;;
20393;SDS011;10356;50.544;9.642;2023-06-22T13:38:31;11.40;;;8.27;;
20393;SDS011;10356;50.544;9.642;2023-06-22T13:40:57;11.32;;;7.55;;
20393;SDS011;10356;50.544;9.642;2023-06-22T13:43:26;9.68;;;8.60;;
20393;SDS011;10356;50.544;9.642;2023-06-22T13:45:54;9.10;;;8.18;;
20393;SDS011;10356;50.544;9.642;2023-06-22T13:48:21;11.88;;;8.50;;
20393;SDS011;10356;50.544;9.642;2023-06-22T13:50:48;10.30;;;8.20;;
20393;SDS011;10356;50.544;9.642;2023-06-22T13:53:17;12.43;;;8.50;;
20393;SDS011;10356;50.544;9.642;2023-06-22T13:55:44;14.05;;;8.27;;
20393;SDS011;10356;50.544;9.642;2023-06-22T13:58:10;10.95;;;8.05;;
20393;SDS011;10356;50.544;9.642;2023-06-22T14:00:37;10.48;;;7.97;;
20393;SDS011;10356;50.544;9.642;2023-06-22T14:03:04;13.82;;;8.10;;
20393;SDS011;10356;50.544;9.642;2023-06-22T14:05:31;11.18;;;7.40;;
20393;SDS011;10356;50.544;9.642;2023-06-22T14:07:57;11.88;;;8.35;;
20393;SDS011;10356;50.544;9.642;2023-06-22T14:10:24;12.40;;;8.00;;
20393;SDS011;10356;50.544;9.642;2023-06-22T14:12:50;10.35;;;7.82;;
20393;SDS011;10356;50.544;9.642;2023-06-22T14:15:18;12.55;;;7.70;;
20393;SDS011;10356;50.544;9.642;2023-06-22T14:17:44;10.65;;;7.60;;
20393;SDS011;10356;50.544;9.642;2023-06-22T14:20:12;12.32;;;7.55;;
20393;SDS011;10356;50.544;9.642;2023-06-22T14:22:39;11.73;;;7.60;;
20393;SDS011;10356;50.544;9.642;2023-06-22T14:25:06;11.43;;;8.38;;
20393;SDS011;10356;50.544;9.642;2023-06-22T14:27:33;11.00;;;7.65;;
20393;SDS011;10356;50.544;9.642;2023-06-22T14:29:59;10.02;;;7.57;;
20393;SDS011;10356;50.544;9.642;2023-06-22T14:32:27;9.70;;;7.00;;
20393;SDS011;10356;50.544;9.642;2023-06-22T14:34:54;9.57;;;6.95;;